Strona główna
METAR-TAF:

METAR-TAF

Lotnisko :

Delaware, Ohio, Stany Zjednoczone

Szerokość geograficzna: 40-16-47N, Długość geograficzna: 83-06-53W, wysokość: 288 m

Aktualna obserwacja pogody

Raport powstał 23 minut temu, godzina 12:35 UTC
Wiatr 19 kt od zachód
Temperatura 6°C
Wilgotność 70%
Ciśnienie 1016 hPa
Widzialność: 16.1 km
Zachmurzenie całkowite na wysokości 3300 ft

METAR: KDLZ 301235Z AUTO 28019KT 10SM OVC033 06/01 A3000 RMK AO2

czas: 08:58 (12:58 UTC)


TAF: brakujący

Obserwacja i prognoza pogody dla ponad 4000 lotnisk (raport METAR i TAF).

Dostępne stacje oznaczono żółtymi i czerwonymi punktami na mapie.

Najedź kursorem aby zobaczyć nazwę stacji.

Kliknij aby zobaczyć obserwacje i prognozy pogody.

Aby zmienić mapę: kliknij na zielony przycisk z czarnym krzyżykiem, aby powiększyć; na zielony przycisk z myślnikiem, aby pomniejszyć; na zielone strzałki, aby przejść do map sąsiednich.


METAR-TAF: